sensor_id;sensor_type;location;lat;lon;timestamp;P1;durP1;ratioP1;P2;durP2;ratioP2
52642;SDS011;38531;53.296;6.614;2023-04-25T08:52:21;773.47;;;333.45;;
52642;SDS011;38531;53.296;6.614;2023-04-25T08:57:14;727.93;;;387.10;;
52642;SDS011;38531;53.296;6.614;2023-04-25T10:23:49;32.92;;;31.33;;
52642;SDS011;38531;53.296;6.614;2023-04-25T10:28:55;191.20;;;122.80;;
52642;SDS011;38531;53.296;6.614;2023-04-25T10:31:22;196.38;;;124.93;;
52642;SDS011;38531;53.296;6.614;2023-04-25T10:36:15;100.85;;;89.90;;
52642;SDS011;38531;53.296;6.614;2023-04-25T10:38:44;56.47;;;52.22;;
52642;SDS011;38531;53.296;6.614;2023-04-25T16:48:30;112.78;;;101.45;;
52642;SDS011;38531;53.296;6.614;2023-04-25T18:00:22;93.13;;;85.03;;
52642;SDS011;38531;53.296;6.614;2023-04-25T18:07:41;109.25;;;98.25;;
52642;SDS011;38531;53.296;6.614;2023-04-25T18:12:35;106.32;;;95.97;;
52642;SDS011;38531;53.296;6.614;2023-04-25T18:17:31;85.93;;;79.03;;
52642;SDS011;38531;53.296;6.614;2023-04-25T18:22:26;276.80;;;150.65;;
52642;SDS011;38531;53.296;6.614;2023-04-25T18:24:52;93.93;;;85.85;;
52642;SDS011;38531;53.296;6.614;2023-04-25T18:27:18;110.22;;;99.15;;
52642;SDS011;38531;53.296;6.614;2023-04-25T18:29:44;111.35;;;100.05;;
52642;SDS011;38531;53.296;6.614;2023-04-25T18:32:10;110.78;;;99.68;;
52642;SDS011;38531;53.296;6.614;2023-04-25T18:34:35;112.90;;;101.32;;
52642;SDS011;38531;53.296;6.614;2023-04-25T18:37:02;109.53;;;98.63;;
52642;SDS011;38531;53.296;6.614;2023-04-25T18:39:27;110.18;;;99.07;;
52642;SDS011;38531;53.296;6.614;2023-04-25T18:41:53;112.68;;;101.30;;
52642;SDS011;38531;53.296;6.614;2023-04-25T18:44:21;110.03;;;98.97;;
52642;SDS011;38531;53.296;6.614;2023-04-25T18:46:47;113.30;;;101.87;;
52642;SDS011;38531;53.296;6.614;2023-04-25T18:49:12;24.88;;;22.80;;
52642;SDS011;38531;53.296;6.614;2023-04-25T18:54:05;289.17;;;160.38;;
52642;SDS011;38531;53.296;6.614;2023-04-25T18:56:33;139.13;;;116.72;;
52642;SDS011;38531;53.296;6.614;2023-04-25T18:58:59;173.03;;;129.17;;
52642;SDS011;38531;53.296;6.614;2023-04-25T19:01:25;177.50;;;131.40;;
52642;SDS011;38531;53.296;6.614;2023-04-25T19:03:51;164.07;;;125.83;;
52642;SDS011;38531;53.296;6.614;2023-04-25T19:06:24;170.23;;;127.80;;
52642;SDS011;38531;53.296;6.614;2023-04-25T19:08:54;173.57;;;129.57;;
52642;SDS011;38531;53.296;6.614;2023-04-25T19:11:21;157.53;;;123.63;;
52642;SDS011;38531;53.296;6.614;2023-04-25T19:13:48;157.83;;;123.47;;
52642;SDS011;38531;53.296;6.614;2023-04-25T19:16:14;147.83;;;119.80;;
52642;SDS011;38531;53.296;6.614;2023-04-25T19:18:41;134.40;;;114.83;;
52642;SDS011;38531;53.296;6.614;2023-04-25T19:21:07;149.07;;;120.40;;
52642;SDS011;38531;53.296;6.614;2023-04-25T19:23:33;134.80;;;115.90;;
52642;SDS011;38531;53.296;6.614;2023-04-25T19:26:00;122.93;;;109.20;;
52642;SDS011;38531;53.296;6.614;2023-04-25T19:28:26;128.70;;;113.53;;
52642;SDS011;38531;53.296;6.614;2023-04-25T19:30:54;125.30;;;111.47;;
52642;SDS011;38531;53.296;6.614;2023-04-25T19:33:20;129.13;;;112.63;;
52642;SDS011;38531;53.296;6.614;2023-04-25T19:35:46;137.40;;;116.37;;
52642;SDS011;38531;53.296;6.614;2023-04-25T19:38:11;129.23;;;112.70;;
52642;SDS011;38531;53.296;6.614;2023-04-25T19:40:39;132.50;;;113.57;;
52642;SDS011;38531;53.296;6.614;2023-04-25T19:43:05;141.53;;;117.97;;
52642;SDS011;38531;53.296;6.614;2023-04-25T19:45:30;140.30;;;116.70;;
52642;SDS011;38531;53.296;6.614;2023-04-25T19:47:58;149.57;;;120.53;;
52642;SDS011;38531;53.296;6.614;2023-04-25T19:50:24;165.83;;;125.83;;
52642;SDS011;38531;53.296;6.614;2023-04-25T19:52:50;147.37;;;118.90;;
52642;SDS011;38531;53.296;6.614;2023-04-25T19:55:16;157.43;;;123.27;;
52642;SDS011;38531;53.296;6.614;2023-04-25T19:57:42;179.90;;;130.87;;
52642;SDS011;38531;53.296;6.614;2023-04-25T20:00:12;176.70;;;129.40;;
52642;SDS011;38531;53.296;6.614;2023-04-25T20:02:40;171.83;;;128.27;;
52642;SDS011;38531;53.296;6.614;2023-04-25T20:05:09;184.73;;;132.00;;
52642;SDS011;38531;53.296;6.614;2023-04-25T20:07:37;176.63;;;129.50;;
52642;SDS011;38531;53.296;6.614;2023-04-25T20:10:04;173.27;;;127.27;;
52642;SDS011;38531;53.296;6.614;2023-04-25T20:12:32;182.37;;;131.67;;
52642;SDS011;38531;53.296;6.614;2023-04-25T20:15:00;166.60;;;126.17;;
52642;SDS011;38531;53.296;6.614;2023-04-25T20:17:26;170.83;;;126.00;;
52642;SDS011;38531;53.296;6.614;2023-04-25T20:19:52;200.57;;;137.47;;
52642;SDS011;38531;53.296;6.614;2023-04-25T20:22:17;199.90;;;136.60;;
52642;SDS011;38531;53.296;6.614;2023-04-25T20:24:43;180.57;;;130.37;;
52642;SDS011;38531;53.296;6.614;2023-04-25T20:27:09;220.30;;;142.43;;
52642;SDS011;38531;53.296;6.614;2023-04-25T20:29:34;174.43;;;128.70;;
52642;SDS011;38531;53.296;6.614;2023-04-25T20:32:00;177.70;;;130.03;;
52642;SDS011;38531;53.296;6.614;2023-04-25T20:34:26;190.87;;;133.37;;
52642;SDS011;38531;53.296;6.614;2023-04-25T20:36:53;182.60;;;131.17;;
52642;SDS011;38531;53.296;6.614;2023-04-25T20:39:20;180.10;;;130.30;;
52642;SDS011;38531;53.296;6.614;2023-04-25T20:41:46;173.00;;;127.87;;
52642;SDS011;38531;53.296;6.614;2023-04-25T20:44:12;166.93;;;126.37;;
52642;SDS011;38531;53.296;6.614;2023-04-25T20:46:38;167.87;;;126.30;;
52642;SDS011;38531;53.296;6.614;2023-04-25T20:49:04;168.97;;;127.13;;
52642;SDS011;38531;53.296;6.614;2023-04-25T20:51:31;159.00;;;123.57;;
52642;SDS011;38531;53.296;6.614;2023-04-25T20:53:57;175.00;;;128.50;;
52642;SDS011;38531;53.296;6.614;2023-04-25T20:56:23;166.93;;;126.13;;
52642;SDS011;38531;53.296;6.614;2023-04-25T20:58:50;164.00;;;124.97;;
52642;SDS011;38531;53.296;6.614;2023-04-25T21:01:16;167.23;;;126.37;;
52642;SDS011;38531;53.296;6.614;2023-04-25T21:03:43;161.90;;;124.07;;
52642;SDS011;38531;53.296;6.614;2023-04-25T21:06:11;162.73;;;124.73;;
52642;SDS011;38531;53.296;6.614;2023-04-25T21:08:37;154.03;;;121.40;;
52642;SDS011;38531;53.296;6.614;2023-04-25T21:11:02;154.83;;;121.30;;
52642;SDS011;38531;53.296;6.614;2023-04-25T21:13:28;155.80;;;121.90;;
52642;SDS011;38531;53.296;6.614;2023-04-25T21:15:54;165.57;;;125.63;;
52642;SDS011;38531;53.296;6.614;2023-04-25T21:18:20;151.80;;;121.13;;
52642;SDS011;38531;53.296;6.614;2023-04-25T21:20:46;171.70;;;128.47;;
52642;SDS011;38531;53.296;6.614;2023-04-25T21:23:12;154.27;;;120.97;;
52642;SDS011;38531;53.296;6.614;2023-04-25T21:25:38;153.13;;;121.80;;
52642;SDS011;38531;53.296;6.614;2023-04-25T21:28:05;155.70;;;123.10;;
52642;SDS011;38531;53.296;6.614;2023-04-25T21:30:31;145.57;;;119.30;;
52642;SDS011;38531;53.296;6.614;2023-04-25T21:32:57;146.30;;;119.90;;
52642;SDS011;38531;53.296;6.614;2023-04-25T21:35:23;125.20;;;111.40;;
52642;SDS011;38531;53.296;6.614;2023-04-25T21:37:49;126.30;;;111.67;;
52642;SDS011;38531;53.296;6.614;2023-04-25T21:40:15;130.17;;;113.37;;
52642;SDS011;38531;53.296;6.614;2023-04-25T21:42:45;129.43;;;113.00;;
52642;SDS011;38531;53.296;6.614;2023-04-25T21:45:14;124.63;;;110.83;;
52642;SDS011;38531;53.296;6.614;2023-04-25T21:47:40;126.43;;;111.33;;
52642;SDS011;38531;53.296;6.614;2023-04-25T21:50:05;130.17;;;113.70;;
52642;SDS011;38531;53.296;6.614;2023-04-25T21:52:32;123.87;;;110.10;;
52642;SDS011;38531;53.296;6.614;2023-04-25T21:54:58;122.37;;;108.97;;
52642;SDS011;38531;53.296;6.614;2023-04-25T21:57:23;121.80;;;108.53;;
52642;SDS011;38531;53.296;6.614;2023-04-25T21:59:49;121.37;;;108.17;;
52642;SDS011;38531;53.296;6.614;2023-04-25T22:02:15;121.27;;;108.13;;
52642;SDS011;38531;53.296;6.614;2023-04-25T22:04:41;129.47;;;112.93;;
52642;SDS011;38531;53.296;6.614;2023-04-25T22:07:09;121.17;;;108.03;;
52642;SDS011;38531;53.296;6.614;2023-04-25T22:09:35;142.23;;;117.27;;
52642;SDS011;38531;53.296;6.614;2023-04-25T22:12:01;139.93;;;116.37;;
52642;SDS011;38531;53.296;6.614;2023-04-25T22:14:28;151.20;;;122.03;;
52642;SDS011;38531;53.296;6.614;2023-04-25T22:16:55;137.87;;;116.43;;
52642;SDS011;38531;53.296;6.614;2023-04-25T22:19:22;134.30;;;114.80;;
52642;SDS011;38531;53.296;6.614;2023-04-25T22:21:48;125.70;;;111.60;;
52642;SDS011;38531;53.296;6.614;2023-04-25T22:24:14;118.57;;;105.87;;
52642;SDS011;38531;53.296;6.614;2023-04-25T22:26:40;116.60;;;104.30;;
52642;SDS011;38531;53.296;6.614;2023-04-25T22:29:06;122.30;;;108.90;;
52642;SDS011;38531;53.296;6.614;2023-04-25T22:31:34;131.03;;;113.07;;
52642;SDS011;38531;53.296;6.614;2023-04-25T22:34:00;121.80;;;108.50;;
52642;SDS011;38531;53.296;6.614;2023-04-25T22:36:28;119.50;;;106.50;;
52642;SDS011;38531;53.296;6.614;2023-04-25T22:38:54;130.13;;;113.37;;
52642;SDS011;38531;53.296;6.614;2023-04-25T22:41:21;128.47;;;111.60;;
52642;SDS011;38531;53.296;6.614;2023-04-25T22:43:47;135.63;;;114.70;;
52642;SDS011;38531;53.296;6.614;2023-04-25T22:46:17;136.53;;;114.60;;
52642;SDS011;38531;53.296;6.614;2023-04-25T22:48:47;132.67;;;113.87;;
52642;SDS011;38531;53.296;6.614;2023-04-25T22:51:13;130.80;;;112.67;;
52642;SDS011;38531;53.296;6.614;2023-04-25T22:53:42;137.80;;;114.27;;
52642;SDS011;38531;53.296;6.614;2023-04-25T22:56:09;134.63;;;113.00;;
52642;SDS011;38531;53.296;6.614;2023-04-25T22:58:36;140.70;;;117.43;;
52642;SDS011;38531;53.296;6.614;2023-04-25T23:01:05;120.70;;;107.47;;
52642;SDS011;38531;53.296;6.614;2023-04-25T23:03:31;119.90;;;106.90;;
52642;SDS011;38531;53.296;6.614;2023-04-25T23:05:57;124.50;;;110.43;;
52642;SDS011;38531;53.296;6.614;2023-04-25T23:08:24;121.43;;;107.77;;
52642;SDS011;38531;53.296;6.614;2023-04-25T23:10:51;123.90;;;109.73;;
52642;SDS011;38531;53.296;6.614;2023-04-25T23:13:18;125.47;;;110.67;;
52642;SDS011;38531;53.296;6.614;2023-04-25T23:15:45;138.40;;;115.87;;
52642;SDS011;38531;53.296;6.614;2023-04-25T23:18:14;136.07;;;114.20;;
52642;SDS011;38531;53.296;6.614;2023-04-25T23:20:39;130.87;;;113.27;;
52642;SDS011;38531;53.296;6.614;2023-04-25T23:23:05;119.13;;;106.37;;
52642;SDS011;38531;53.296;6.614;2023-04-25T23:25:31;105.27;;;94.90;;
52642;SDS011;38531;53.296;6.614;2023-04-25T23:27:57;114.60;;;102.60;;
52642;SDS011;38531;53.296;6.614;2023-04-25T23:30:23;121.43;;;108.17;;
52642;SDS011;38531;53.296;6.614;2023-04-25T23:32:48;126.13;;;110.73;;
52642;SDS011;38531;53.296;6.614;2023-04-25T23:35:14;120.50;;;107.30;;
52642;SDS011;38531;53.296;6.614;2023-04-25T23:37:40;125.60;;;110.63;;
52642;SDS011;38531;53.296;6.614;2023-04-25T23:40:07;117.57;;;104.97;;
52642;SDS011;38531;53.296;6.614;2023-04-25T23:42:39;118.97;;;106.17;;
52642;SDS011;38531;53.296;6.614;2023-04-25T23:45:06;119.57;;;106.63;;
52642;SDS011;38531;53.296;6.614;2023-04-25T23:47:33;119.47;;;106.57;;
52642;SDS011;38531;53.296;6.614;2023-04-25T23:50:00;119.63;;;106.60;;
52642;SDS011;38531;53.296;6.614;2023-04-25T23:52:26;120.03;;;106.97;;
52642;SDS011;38531;53.296;6.614;2023-04-25T23:54:52;119.23;;;106.37;;
52642;SDS011;38531;53.296;6.614;2023-04-25T23:57:18;122.43;;;109.00;;
